Map

Track Data

SID SEASON NUMBER BASIN SUBBASIN NAME ISO_TIME NATURE LAT LON WMO_WIND WMO_PRES WMO_AGENCY TRACK_TYPE DIST2LAND LANDFALL IFLAG USA_AGENCY USA_ATCF_ID USA_LAT USA_LON USA_RECORD USA_STATUS USA_WIND USA_PRES USA_SSHS USA_R34_NE USA_R34_SE USA_R34_SW USA_R34_NW USA_R50_NE USA_R50_SE USA_R50_SW USA_R50_NW USA_R64_NE USA_R64_SE USA_R64_SW USA_R64_NW USA_POCI USA_ROCI USA_RMW USA_EYE TOKYO_LAT TOKYO_LON TOKYO_GRADE TOKYO_WIND TOKYO_PRES TOKYO_R50_DIR TOKYO_R50_LONG TOKYO_R50_SHORT TOKYO_R30_DIR TOKYO_R30_LONG TOKYO_R30_SHORT TOKYO_LAND CMA_LAT CMA_LON CMA_CAT CMA_WIND CMA_PRES HKO_LAT HKO_LON HKO_CAT HKO_WIND HKO_PRES NEWDELHI_LAT NEWDELHI_LON NEWDELHI_GRADE NEWDELHI_WIND NEWDELHI_PRES NEWDELHI_CI NEWDELHI_DP NEWDELHI_POCI REUNION_LAT REUNION_LON REUNION_TYPE REUNION_WIND REUNION_PRES REUNION_TNUM REUNION_CI REUNION_RMW REUNION_R34_NE REUNION_R34_SE REUNION_R34_SW REUNION_R34_NW REUNION_R50_NE REUNION_R50_SE REUNION_R50_SW REUNION_R50_NW REUNION_R64_NE REUNION_R64_SE REUNION_R64_SW REUNION_R64_NW BOM_LAT BOM_LON BOM_TYPE BOM_WIND BOM_PRES BOM_TNUM BOM_CI BOM_RMW BOM_R34_NE BOM_R34_SE BOM_R34_SW BOM_R34_NW BOM_R50_NE BOM_R50_SE BOM_R50_SW BOM_R50_NW BOM_R64_NE BOM_R64_SE BOM_R64_SW BOM_R64_NW BOM_ROCI BOM_POCI BOM_EYE BOM_POS_METHOD BOM_PRES_METHOD NADI_LAT NADI_LON NADI_CAT NADI_WIND NADI_PRES WELLINGTON_LAT WELLINGTON_LON WELLINGTON_WIND WELLINGTON_PRES DS824_LAT DS824_LON DS824_STAGE DS824_WIND DS824_PRES TD9636_LAT TD9636_LON TD9636_STAGE TD9636_WIND TD9636_PRES TD9635_LAT TD9635_LON TD9635_WIND TD9635_PRES TD9635_ROCI NEUMANN_LAT NEUMANN_LON NEUMANN_CLASS NEUMANN_WIND NEUMANN_PRES MLC_LAT MLC_LON MLC_CLASS MLC_WIND MLC_PRES USA_GUST BOM_GUST BOM_GUST_PER REUNION_GUST REUNION_GUST_PER USA_SEAHGT USA_SEARAD_NE USA_SEARAD_SE USA_SEARAD_SW USA_SEARAD_NW STORM_SPEED STORM_DIR
1910046S13069 1910 11 SI MM NOT_NAMED 1910-02-14 18:00:00 NR -13.2000 68.6000 main 1393 1341 __________O___ -1 -13.2000 68.6000 7 11 211
1910046S13069 1910 11 SI MM NOT_NAMED 1910-02-14 21:00:00 NR -13.6722 68.3057 main 1335 1283 __________P___ -1 -13.6722 68.3057 7 11 211
1910046S13069 1910 11 SI MM NOT_NAMED 1910-02-15 00:00:00 NR -14.1354 68.0186 main 1283 1235 __________P___ -1 -14.1354 68.0186 7 11 211
1910046S13069 1910 11 SI MM NOT_NAMED 1910-02-15 03:00:00 NR -14.5809 67.7472 main 1226 1185 __________P___ -1 -14.5809 67.7472 7 10 210
1910046S13069 1910 11 SI MM NOT_NAMED 1910-02-15 06:00:00 NR -15.0000 67.5000 main 1185 1144 __________O___ -1 -15.0000 67.5000 7 9 209
1910046S13069 1910 11 SI MM NOT_NAMED 1910-02-15 09:00:00 NR -15.3883 67.2837 main 1144 1109 __________P___ -1 -15.3883 67.2837 7 9 207
1910046S13069 1910 11 SI MM NOT_NAMED 1910-02-15 12:00:00 NR -15.7573 67.0970 main 1104 1069 __________P___ -1 -15.7573 67.0970 7 8 204
1910046S13069 1910 11 SI MM NOT_NAMED 1910-02-15 15:00:00 NR -16.1227 66.9369 main 1069 1040 __________P___ -1 -16.1227 66.9369 7 8 201
1910046S13069 1910 11 SI MM NOT_NAMED 1910-02-15 18:00:00 NR -16.5000 66.8000 main 1040 1011 __________O___ -1 -16.5000 66.8000 7 8 198
1910046S13069 1910 11 SI MM NOT_NAMED 1910-02-15 21:00:00 NR -16.8984 66.6661 main 1011 985 __________P___ -1 -16.8984 66.6661 7 9 196
1910046S13069 1910 11 SI MM NOT_NAMED 1910-02-16 00:00:00 NR -17.3125 66.5549 main 985 959 __________P___ -1 -17.3125 66.5549 7 9 193
1910046S13069 1910 11 SI MM NOT_NAMED 1910-02-16 03:00:00 NR -17.7453 66.4662 main 959 932 __________P___ -1 -17.7453 66.4662 7 9 189
1910046S13069 1910 11 SI MM NOT_NAMED 1910-02-16 06:00:00 NR -18.2000 66.4000 main 932 908 __________O___ -1 -18.2000 66.4000 7 10 187
1910046S13069 1910 11 SI MM NOT_NAMED 1910-02-16 09:00:00 NR -18.6906 66.3412 main 908 897 __________P___ -1 -18.6906 66.3412 7 10 185
1910046S13069 1910 11 SI MM NOT_NAMED 1910-02-16 12:00:00 NR -19.2000 66.3050 main 897 890 __________P___ -1 -19.2000 66.3050 7 10 182
1910046S13069 1910 11 SI MM NOT_NAMED 1910-02-16 15:00:00 NR -19.7094 66.2913 main 890 886 __________P___ -1 -19.7094 66.2913 7 10 181
1910046S13069 1910 11 SI MM NOT_NAMED 1910-02-16 18:00:00 NR -20.2000 66.3000 main 886 885 __________O___ -1 -20.2000 66.3000 7 9 180
1910046S13069 1910 11 SI MM NOT_NAMED 1910-02-16 21:00:00 NR -20.6465 66.3083 main 886 886 __________P___ -1 -20.6465 66.3083 7 9 178
1910046S13069 1910 11 SI MM NOT_NAMED 1910-02-17 00:00:00 NR -21.0723 66.3404 main 888 888 __________P___ -1 -21.0723 66.3404 7 9 174
1910046S13069 1910 11 SI MM NOT_NAMED 1910-02-17 03:00:00 NR -21.4871 66.4023 main 903 903 __________P___ -1 -21.4871 66.4023 7 8 170
1910046S13069 1910 11 SI MM NOT_NAMED 1910-02-17 06:00:00 NR -21.9000 66.5000 main 919 919 __________O___ -1 -21.9000 66.5000 7 8 167
1910046S13069 1910 11 SI MM NOT_NAMED 1910-02-17 09:00:00 NR -22.3004 66.6075 main 938 938 __________P___ -1 -22.3004 66.6075 7 8 164
1910046S13069 1910 11 SI MM NOT_NAMED 1910-02-17 12:00:00 NR -22.7046 66.7542 main 968 968 __________P___ -1 -22.7046 66.7542 7 9 159
1910046S13069 1910 11 SI MM NOT_NAMED 1910-02-17 15:00:00 NR -23.1315 66.9487 main 990 990 __________P___ -1 -23.1315 66.9487 7 10 155
1910046S13069 1910 11 SI MM NOT_NAMED 1910-02-17 18:00:00 NR -23.6000 67.2000 main 1036 1036 __________O___ -1 -23.6000 67.2000 7 11 152
1910046S13069 1910 11 SI MM NOT_NAMED 1910-02-17 21:00:00 NR -24.1232 67.5134 main 1084 1084 __________P___ -1 -24.1232 67.5134 7 13 150
1910046S13069 1910 11 SI MM NOT_NAMED 1910-02-18 00:00:00 NR -24.6912 67.8781 main 1146 1146 __________P___ -1 -24.6912 67.8781 7 14 149
1910046S13069 1910 11 SI MM NOT_NAMED 1910-02-18 03:00:00 NR -25.2887 68.2789 main 1210 1210 __________P___ -1 -25.2887 68.2789 7 14 148
1910046S13069 1910 11 SI MM NOT_NAMED 1910-02-18 06:00:00 NR -25.9000 68.7000 main 1274 __________O___ -1 -25.9000 68.7000 7 14 148

About IBTrACS Database

This database is a web-friendly format of International Best Track Archive for Climate Stewardship (IBTrACS), a global best track data archive curated by NOAA dating back to 1842.

Updated: 2021-11-26